sensor_id;sensor_type;location;lat;lon;timestamp;noise_LAeq;noise_LA_min;noise_LA_max;noise_LA01;noise_LA95
59284;Laerm;45056;47.602;9.886;2024-01-06T00:01:03;44.30;39.58;55.22;;
59284;Laerm;45056;47.602;9.886;2024-01-06T00:03:31;44.39;40.03;53.17;;
59284;Laerm;45056;47.602;9.886;2024-01-06T00:05:59;45.26;39.46;60.82;;
59284;Laerm;45056;47.602;9.886;2024-01-06T00:08:27;45.96;39.08;61.88;;
59284;Laerm;45056;47.602;9.886;2024-01-06T00:10:55;42.41;38.95;47.67;;
59284;Laerm;45056;47.602;9.886;2024-01-06T00:13:24;43.74;39.08;50.57;;
59284;Laerm;45056;47.602;9.886;2024-01-06T00:15:52;45.54;39.21;60.02;;
59284;Laerm;45056;47.602;9.886;2024-01-06T00:18:21;42.05;38.67;48.02;;
59284;Laerm;45056;47.602;9.886;2024-01-06T00:20:49;41.90;38.21;46.71;;
59284;Laerm;45056;47.602;9.886;2024-01-06T00:23:17;46.02;38.21;59.07;;
59284;Laerm;45056;47.602;9.886;2024-01-06T00:25:45;43.68;38.67;59.21;;
59284;Laerm;45056;47.602;9.886;2024-01-06T00:28:13;41.95;38.37;54.94;;
59284;Laerm;45056;47.602;9.886;2024-01-06T00:30:41;43.37;39.08;54.98;;
59284;Laerm;45056;47.602;9.886;2024-01-06T00:33:09;43.34;38.52;57.87;;
59284;Laerm;45056;47.602;9.886;2024-01-06T00:35:40;41.95;37.88;49.19;;
59284;Laerm;45056;47.602;9.886;2024-01-06T00:38:08;41.91;38.21;47.67;;
59284;Laerm;45056;47.602;9.886;2024-01-06T00:40:36;42.59;38.52;51.70;;
59284;Laerm;45056;47.602;9.886;2024-01-06T00:43:04;44.61;37.88;57.19;;
59284;Laerm;45056;47.602;9.886;2024-01-06T00:45:32;43.81;38.21;54.88;;
59284;Laerm;45056;47.602;9.886;2024-01-06T00:48:00;42.14;38.67;48.63;;
59284;Laerm;45056;47.602;9.886;2024-01-06T00:50:28;44.61;39.21;58.42;;
59284;Laerm;45056;47.602;9.886;2024-01-06T00:52:57;41.60;37.52;54.15;;
59284;Laerm;45056;47.602;9.886;2024-01-06T00:55:26;41.55;37.88;47.12;;
59284;Laerm;45056;47.602;9.886;2024-01-06T00:57:54;43.67;37.88;55.06;;
59284;Laerm;45056;47.602;9.886;2024-01-06T01:00:22;45.73;37.70;56.42;;
59284;Laerm;45056;47.602;9.886;2024-01-06T01:02:50;44.99;37.88;61.04;;
59284;Laerm;45056;47.602;9.886;2024-01-06T01:05:18;41.72;38.21;46.78;;
59284;Laerm;45056;47.602;9.886;2024-01-06T01:07:46;44.06;38.52;58.70;;
59284;Laerm;45056;47.602;9.886;2024-01-06T01:10:16;44.05;38.67;58.49;;
59284;Laerm;45056;47.602;9.886;2024-01-06T01:12:44;44.82;38.52;60.06;;
59284;Laerm;45056;47.602;9.886;2024-01-06T01:15:12;43.51;38.05;56.39;;
59284;Laerm;45056;47.602;9.886;2024-01-06T01:17:40;44.99;38.81;60.85;;
59284;Laerm;45056;47.602;9.886;2024-01-06T01:20:09;45.39;38.37;59.95;;
59284;Laerm;45056;47.602;9.886;2024-01-06T01:22:37;44.69;37.52;61.78;;
59284;Laerm;45056;47.602;9.886;2024-01-06T01:25:05;43.89;38.60;55.60;;
59284;Laerm;45056;47.602;9.886;2024-01-06T01:27:36;41.91;38.81;47.14;;
59284;Laerm;45056;47.602;9.886;2024-01-06T01:30:05;46.27;37.88;64.85;;
59284;Laerm;45056;47.602;9.886;2024-01-06T01:32:33;44.03;37.70;60.03;;
59284;Laerm;45056;47.602;9.886;2024-01-06T01:35:01;41.44;37.32;53.64;;
59284;Laerm;45056;47.602;9.886;2024-01-06T01:37:29;43.60;37.32;63.03;;
59284;Laerm;45056;47.602;9.886;2024-01-06T01:39:58;46.05;38.05;64.73;;
59284;Laerm;45056;47.602;9.886;2024-01-06T01:42:26;43.98;37.32;59.79;;
59284;Laerm;45056;47.602;9.886;2024-01-06T01:44:56;43.37;38.95;56.50;;
59284;Laerm;45056;47.602;9.886;2024-01-06T01:47:24;42.74;37.70;54.54;;
59284;Laerm;45056;47.602;9.886;2024-01-06T01:49:53;45.97;38.21;63.17;;
59284;Laerm;45056;47.602;9.886;2024-01-06T01:52:22;42.79;37.52;57.57;;
59284;Laerm;45056;47.602;9.886;2024-01-06T01:54:52;41.46;37.88;47.44;;
59284;Laerm;45056;47.602;9.886;2024-01-06T01:57:23;44.18;37.70;59.91;;
59284;Laerm;45056;47.602;9.886;2024-01-06T01:59:52;41.86;37.52;53.04;;
59284;Laerm;45056;47.602;9.886;2024-01-06T02:02:23;43.87;36.91;56.82;;
59284;Laerm;45056;47.602;9.886;2024-01-06T02:04:51;43.45;37.32;57.88;;
59284;Laerm;45056;47.602;9.886;2024-01-06T02:07:19;41.34;37.52;48.20;;
59284;Laerm;45056;47.602;9.886;2024-01-06T02:09:47;44.43;37.52;60.26;;
59284;Laerm;45056;47.602;9.886;2024-01-06T02:12:15;42.08;37.88;53.63;;
59284;Laerm;45056;47.602;9.886;2024-01-06T02:14:43;41.87;37.32;52.45;;
59284;Laerm;45056;47.602;9.886;2024-01-06T02:17:11;43.98;37.12;62.89;;
59284;Laerm;45056;47.602;9.886;2024-01-06T02:19:40;44.25;36.91;60.75;;
59284;Laerm;45056;47.602;9.886;2024-01-06T02:22:10;44.47;37.70;61.62;;
59284;Laerm;45056;47.602;9.886;2024-01-06T02:24:38;41.09;37.12;48.29;;
59284;Laerm;45056;47.602;9.886;2024-01-06T02:27:06;41.26;37.12;47.02;;
59284;Laerm;45056;47.602;9.886;2024-01-06T02:29:34;41.06;36.91;46.35;;
59284;Laerm;45056;47.602;9.886;2024-01-06T02:32:02;41.85;37.35;52.85;;
59284;Laerm;45056;47.602;9.886;2024-01-06T02:34:30;44.94;36.91;64.46;;
59284;Laerm;45056;47.602;9.886;2024-01-06T02:36:59;41.14;37.12;52.69;;
59284;Laerm;45056;47.602;9.886;2024-01-06T02:39:28;40.94;36.69;45.97;;
59284;Laerm;45056;47.602;9.886;2024-01-06T02:41:56;41.28;36.69;46.13;;
59284;Laerm;45056;47.602;9.886;2024-01-06T02:44:24;40.27;36.45;45.83;;
59284;Laerm;45056;47.602;9.886;2024-01-06T02:46:52;41.77;36.69;54.39;;
59284;Laerm;45056;47.602;9.886;2024-01-06T02:49:21;42.57;36.91;59.60;;
59284;Laerm;45056;47.602;9.886;2024-01-06T02:51:49;40.43;35.94;52.60;;
59284;Laerm;45056;47.602;9.886;2024-01-06T02:54:17;44.62;36.69;62.63;;
59284;Laerm;45056;47.602;9.886;2024-01-06T02:56:46;40.30;36.69;47.30;;
59284;Laerm;45056;47.602;9.886;2024-01-06T02:59:14;40.60;36.45;47.04;;
59284;Laerm;45056;47.602;9.886;2024-01-06T03:01:42;44.59;35.94;56.91;;
59284;Laerm;45056;47.602;9.886;2024-01-06T03:04:10;44.41;36.69;60.04;;
59284;Laerm;45056;47.602;9.886;2024-01-06T03:06:38;41.07;36.91;46.62;;
59284;Laerm;45056;47.602;9.886;2024-01-06T03:09:06;42.03;37.70;53.03;;
59284;Laerm;45056;47.602;9.886;2024-01-06T03:11:34;42.96;36.69;57.73;;
59284;Laerm;45056;47.602;9.886;2024-01-06T03:14:03;40.22;36.45;46.48;;
59284;Laerm;45056;47.602;9.886;2024-01-06T03:16:31;40.67;36.20;54.66;;
59284;Laerm;45056;47.602;9.886;2024-01-06T03:19:00;40.90;37.32;45.80;;
59284;Laerm;45056;47.602;9.886;2024-01-06T03:21:28;40.48;36.20;45.63;;
59284;Laerm;45056;47.602;9.886;2024-01-06T03:23:56;40.25;36.20;47.05;;
59284;Laerm;45056;47.602;9.886;2024-01-06T03:26:24;40.00;36.20;47.86;;
59284;Laerm;45056;47.602;9.886;2024-01-06T03:28:54;40.17;36.10;45.27;;
59284;Laerm;45056;47.602;9.886;2024-01-06T03:31:24;41.19;36.45;54.49;;
59284;Laerm;45056;47.602;9.886;2024-01-06T03:33:52;43.40;36.20;60.82;;
59284;Laerm;45056;47.602;9.886;2024-01-06T03:36:21;39.89;36.20;52.60;;
59284;Laerm;45056;47.602;9.886;2024-01-06T03:38:49;39.89;36.45;45.80;;
59284;Laerm;45056;47.602;9.886;2024-01-06T03:41:17;41.26;36.45;49.40;;
59284;Laerm;45056;47.602;9.886;2024-01-06T03:43:45;40.31;36.20;45.66;;
59284;Laerm;45056;47.602;9.886;2024-01-06T03:46:13;45.91;37.32;61.15;;
59284;Laerm;45056;47.602;9.886;2024-01-06T03:48:43;44.00;36.91;60.59;;
59284;Laerm;45056;47.602;9.886;2024-01-06T03:51:12;40.23;35.94;45.69;;
59284;Laerm;45056;47.602;9.886;2024-01-06T03:53:40;43.72;36.45;61.38;;
59284;Laerm;45056;47.602;9.886;2024-01-06T03:56:09;41.51;37.12;51.20;;
59284;Laerm;45056;47.602;9.886;2024-01-06T03:58:37;41.80;37.12;51.72;;
59284;Laerm;45056;47.602;9.886;2024-01-06T04:01:04;45.63;37.70;56.43;;
59284;Laerm;45056;47.602;9.886;2024-01-06T04:03:32;40.89;37.52;47.16;;
59284;Laerm;45056;47.602;9.886;2024-01-06T04:06:02;41.12;37.32;46.38;;
59284;Laerm;45056;47.602;9.886;2024-01-06T04:08:31;45.24;37.12;63.06;;
59284;Laerm;45056;47.602;9.886;2024-01-06T04:10:58;41.40;38.52;46.52;;
59284;Laerm;45056;47.602;9.886;2024-01-06T04:13:26;44.49;38.67;61.18;;
59284;Laerm;45056;47.602;9.886;2024-01-06T04:15:54;43.99;37.70;59.48;;
59284;Laerm;45056;47.602;9.886;2024-01-06T04:18:22;41.40;38.37;53.82;;
59284;Laerm;45056;47.602;9.886;2024-01-06T04:20:50;43.97;36.69;61.30;;
59284;Laerm;45056;47.602;9.886;2024-01-06T04:23:20;41.02;37.32;52.08;;
59284;Laerm;45056;47.602;9.886;2024-01-06T04:25:48;44.50;37.70;58.50;;
59284;Laerm;45056;47.602;9.886;2024-01-06T04:28:16;41.62;38.18;46.84;;
59284;Laerm;45056;47.602;9.886;2024-01-06T04:30:44;45.59;37.70;59.26;;
59284;Laerm;45056;47.602;9.886;2024-01-06T04:33:12;41.13;36.69;52.47;;
59284;Laerm;45056;47.602;9.886;2024-01-06T04:35:40;41.20;36.45;45.86;;
59284;Laerm;45056;47.602;9.886;2024-01-06T04:38:08;45.19;36.45;63.56;;
59284;Laerm;45056;47.602;9.886;2024-01-06T04:40:37;40.79;36.45;48.61;;
59284;Laerm;45056;47.602;9.886;2024-01-06T04:43:05;42.81;38.05;51.96;;
59284;Laerm;45056;47.602;9.886;2024-01-06T04:45:34;43.90;37.70;58.38;;
59284;Laerm;45056;47.602;9.886;2024-01-06T04:48:05;41.82;37.70;49.64;;
59284;Laerm;45056;47.602;9.886;2024-01-06T04:50:33;41.78;37.32;50.54;;
59284;Laerm;45056;47.602;9.886;2024-01-06T04:53:01;40.56;36.20;49.70;;
59284;Laerm;45056;47.602;9.886;2024-01-06T04:55:29;40.38;36.45;51.21;;
59284;Laerm;45056;47.602;9.886;2024-01-06T04:57:58;44.50;36.91;59.95;;
59284;Laerm;45056;47.602;9.886;2024-01-06T05:00:26;46.78;38.05;60.14;;
59284;Laerm;45056;47.602;9.886;2024-01-06T05:02:54;51.82;36.91;65.16;;
59284;Laerm;45056;47.602;9.886;2024-01-06T05:05:23;54.01;38.52;67.04;;
59284;Laerm;45056;47.602;9.886;2024-01-06T05:07:51;43.79;38.02;60.20;;
59284;Laerm;45056;47.602;9.886;2024-01-06T05:10:19;47.48;37.12;64.41;;
59284;Laerm;45056;47.602;9.886;2024-01-06T05:12:47;42.28;37.12;59.71;;
59284;Laerm;45056;47.602;9.886;2024-01-06T05:15:16;43.85;37.12;58.16;;
59284;Laerm;45056;47.602;9.886;2024-01-06T05:17:45;40.65;36.69;46.10;;
59284;Laerm;45056;47.602;9.886;2024-01-06T05:20:13;40.48;36.45;44.97;;
59284;Laerm;45056;47.602;9.886;2024-01-06T05:22:41;40.37;36.69;54.74;;
59284;Laerm;45056;47.602;9.886;2024-01-06T05:25:09;40.90;37.12;54.11;;
59284;Laerm;45056;47.602;9.886;2024-01-06T05:27:37;40.67;36.45;46.05;;
59284;Laerm;45056;47.602;9.886;2024-01-06T05:30:06;41.71;36.69;55.05;;
59284;Laerm;45056;47.602;9.886;2024-01-06T05:32:37;41.08;37.12;47.70;;
59284;Laerm;45056;47.602;9.886;2024-01-06T05:35:06;42.95;37.32;56.01;;
59284;Laerm;45056;47.602;9.886;2024-01-06T05:37:34;40.54;36.91;45.27;;
59284;Laerm;45056;47.602;9.886;2024-01-06T05:40:02;43.03;35.94;57.77;;
59284;Laerm;45056;47.602;9.886;2024-01-06T05:42:31;42.93;36.20;64.90;;
59284;Laerm;45056;47.602;9.886;2024-01-06T05:44:59;43.02;37.52;59.34;;
59284;Laerm;45056;47.602;9.886;2024-01-06T05:47:27;44.33;37.52;58.66;;
59284;Laerm;45056;47.602;9.886;2024-01-06T05:49:56;44.56;36.91;60.97;;
59284;Laerm;45056;47.602;9.886;2024-01-06T05:52:24;45.58;36.45;61.47;;
59284;Laerm;45056;47.602;9.886;2024-01-06T05:54:52;43.39;38.05;58.51;;
59284;Laerm;45056;47.602;9.886;2024-01-06T05:57:20;42.29;36.91;56.30;;
59284;Laerm;45056;47.602;9.886;2024-01-06T05:59:48;43.90;36.91;63.30;;
59284;Laerm;45056;47.602;9.886;2024-01-06T06:02:16;47.99;37.70;60.77;;
59284;Laerm;45056;47.602;9.886;2024-01-06T06:04:44;43.01;36.45;56.80;;
59284;Laerm;45056;47.602;9.886;2024-01-06T06:07:14;40.94;37.32;46.10;;
59284;Laerm;45056;47.602;9.886;2024-01-06T06:09:42;40.56;36.20;50.59;;
59284;Laerm;45056;47.602;9.886;2024-01-06T06:12:09;41.10;36.98;48.63;;
59284;Laerm;45056;47.602;9.886;2024-01-06T06:14:37;40.95;37.32;47.30;;
59284;Laerm;45056;47.602;9.886;2024-01-06T06:17:07;47.10;37.12;62.20;;
59284;Laerm;45056;47.602;9.886;2024-01-06T06:19:35;44.01;36.91;57.20;;
59284;Laerm;45056;47.602;9.886;2024-01-06T06:22:03;46.44;36.91;65.57;;
59284;Laerm;45056;47.602;9.886;2024-01-06T06:24:33;42.70;36.91;56.67;;
59284;Laerm;45056;47.602;9.886;2024-01-06T06:27:01;44.48;36.69;59.42;;
59284;Laerm;45056;47.602;9.886;2024-01-06T06:29:29;41.25;37.12;47.90;;
59284;Laerm;45056;47.602;9.886;2024-01-06T06:31:57;41.10;36.20;54.16;;
59284;Laerm;45056;47.602;9.886;2024-01-06T06:34:25;44.96;36.91;58.16;;
59284;Laerm;45056;47.602;9.886;2024-01-06T06:36:53;41.21;35.94;52.74;;
59284;Laerm;45056;47.602;9.886;2024-01-06T06:39:21;45.67;35.66;62.28;;
59284;Laerm;45056;47.602;9.886;2024-01-06T06:41:50;44.75;35.66;60.90;;
59284;Laerm;45056;47.602;9.886;2024-01-06T06:44:18;41.62;36.69;45.97;;
59284;Laerm;45056;47.602;9.886;2024-01-06T06:46:47;42.36;37.12;54.47;;
59284;Laerm;45056;47.602;9.886;2024-01-06T06:49:14;42.97;36.69;57.48;;
59284;Laerm;45056;47.602;9.886;2024-01-06T06:51:42;46.59;36.20;61.80;;
59284;Laerm;45056;47.602;9.886;2024-01-06T06:54:14;45.83;35.66;59.22;;
59284;Laerm;45056;47.602;9.886;2024-01-06T06:56:42;48.60;36.91;61.85;;
59284;Laerm;45056;47.602;9.886;2024-01-06T06:59:11;44.60;36.91;59.18;;
59284;Laerm;45056;47.602;9.886;2024-01-06T07:01:40;48.33;36.45;59.06;;
59284;Laerm;45056;47.602;9.886;2024-01-06T07:04:08;43.80;36.20;58.99;;
59284;Laerm;45056;47.602;9.886;2024-01-06T07:06:36;48.87;39.08;62.91;;
59284;Laerm;45056;47.602;9.886;2024-01-06T07:09:04;45.41;36.69;57.79;;
59284;Laerm;45056;47.602;9.886;2024-01-06T07:11:32;49.13;35.94;66.40;;
59284;Laerm;45056;47.602;9.886;2024-01-06T07:14:00;45.65;36.69;62.56;;
59284;Laerm;45056;47.602;9.886;2024-01-06T07:16:29;47.81;37.70;62.07;;
59284;Laerm;45056;47.602;9.886;2024-01-06T07:18:57;40.89;37.70;44.47;;
59284;Laerm;45056;47.602;9.886;2024-01-06T07:21:25;50.52;38.05;64.56;;
59284;Laerm;45056;47.602;9.886;2024-01-06T07:23:53;47.06;37.70;61.07;;
59284;Laerm;45056;47.602;9.886;2024-01-06T07:26:21;49.15;38.05;63.53;;
59284;Laerm;45056;47.602;9.886;2024-01-06T07:28:49;46.36;38.21;61.13;;
59284;Laerm;45056;47.602;9.886;2024-01-06T07:31:17;47.09;37.32;60.23;;
59284;Laerm;45056;47.602;9.886;2024-01-06T07:33:46;44.94;37.32;54.76;;
59284;Laerm;45056;47.602;9.886;2024-01-06T07:36:14;46.31;37.88;57.92;;
59284;Laerm;45056;47.602;9.886;2024-01-06T07:38:44;44.93;38.05;58.57;;
59284;Laerm;45056;47.602;9.886;2024-01-06T07:41:12;48.11;36.91;60.79;;
59284;Laerm;45056;47.602;9.886;2024-01-06T07:43:40;46.97;37.52;62.46;;
59284;Laerm;45056;47.602;9.886;2024-01-06T07:46:08;46.67;37.32;58.83;;
59284;Laerm;45056;47.602;9.886;2024-01-06T07:48:37;48.05;35.66;61.91;;
59284;Laerm;45056;47.602;9.886;2024-01-06T07:51:06;43.69;38.95;55.31;;
59284;Laerm;45056;47.602;9.886;2024-01-06T07:53:34;47.78;39.11;58.35;;
59284;Laerm;45056;47.602;9.886;2024-01-06T07:56:02;44.89;37.12;62.33;;
59284;Laerm;45056;47.602;9.886;2024-01-06T07:58:30;45.93;38.37;59.12;;
59284;Laerm;45056;47.602;9.886;2024-01-06T08:00:59;51.23;39.21;61.35;;
59284;Laerm;45056;47.602;9.886;2024-01-06T08:03:28;48.79;38.37;61.41;;
59284;Laerm;45056;47.602;9.886;2024-01-06T08:05:56;42.95;38.52;67.22;;
59284;Laerm;45056;47.602;9.886;2024-01-06T08:08:26;59.76;37.88;77.00;;
59284;Laerm;45056;47.602;9.886;2024-01-06T08:10:54;48.75;40.89;62.45;;
59284;Laerm;45056;47.602;9.886;2024-01-06T08:13:21;47.02;38.81;60.57;;
59284;Laerm;45056;47.602;9.886;2024-01-06T08:15:49;50.13;38.81;62.25;;
59284;Laerm;45056;47.602;9.886;2024-01-06T08:18:17;46.35;39.58;61.56;;
59284;Laerm;45056;47.602;9.886;2024-01-06T08:20:46;47.12;38.95;61.41;;
59284;Laerm;45056;47.602;9.886;2024-01-06T08:23:14;47.58;38.95;59.87;;
59284;Laerm;45056;47.602;9.886;2024-01-06T08:25:44;50.40;39.70;64.63;;
59284;Laerm;45056;47.602;9.886;2024-01-06T08:28:13;45.12;38.95;57.21;;
59284;Laerm;45056;47.602;9.886;2024-01-06T08:30:42;45.69;39.08;59.44;;
59284;Laerm;45056;47.602;9.886;2024-01-06T08:33:10;45.52;39.58;60.28;;
59284;Laerm;45056;47.602;9.886;2024-01-06T08:35:38;46.71;38.81;61.55;;
59284;Laerm;45056;47.602;9.886;2024-01-06T08:38:07;48.22;39.21;66.09;;
59284;Laerm;45056;47.602;9.886;2024-01-06T08:40:35;48.52;39.81;61.28;;
59284;Laerm;45056;47.602;9.886;2024-01-06T08:43:05;49.86;38.95;62.31;;
59284;Laerm;45056;47.602;9.886;2024-01-06T08:45:33;48.04;38.67;59.53;;
59284;Laerm;45056;47.602;9.886;2024-01-06T08:48:01;64.05;44.58;75.12;;
59284;Laerm;45056;47.602;9.886;2024-01-06T08:50:29;67.55;40.23;75.97;;
59284;Laerm;45056;47.602;9.886;2024-01-06T08:52:57;45.51;39.35;59.77;;
59284;Laerm;45056;47.602;9.886;2024-01-06T08:55:25;66.16;43.09;76.28;;
59284;Laerm;45056;47.602;9.886;2024-01-06T08:57:53;70.43;63.02;76.47;;
59284;Laerm;45056;47.602;9.886;2024-01-06T09:00:22;64.87;40.62;75.88;;
59284;Laerm;45056;47.602;9.886;2024-01-06T09:02:50;48.42;38.67;60.97;;
59284;Laerm;45056;47.602;9.886;2024-01-06T09:05:18;46.42;39.58;59.02;;
59284;Laerm;45056;47.602;9.886;2024-01-06T09:07:46;47.71;40.80;59.48;;
59284;Laerm;45056;47.602;9.886;2024-01-06T09:10:17;48.16;38.67;64.13;;
59284;Laerm;45056;47.602;9.886;2024-01-06T09:12:45;49.28;39.68;63.36;;
59284;Laerm;45056;47.602;9.886;2024-01-06T09:15:14;48.32;39.70;59.84;;
59284;Laerm;45056;47.602;9.886;2024-01-06T09:17:44;47.59;39.21;62.55;;
59284;Laerm;45056;47.602;9.886;2024-01-06T09:20:12;47.54;40.71;61.37;;
59284;Laerm;45056;47.602;9.886;2024-01-06T09:25:08;44.94;39.08;58.35;;
59284;Laerm;45056;47.602;9.886;2024-01-06T09:27:35;49.35;39.81;63.72;;
59284;Laerm;45056;47.602;9.886;2024-01-06T09:30:05;50.24;39.21;63.54;;
59284;Laerm;45056;47.602;9.886;2024-01-06T09:32:35;46.75;40.33;58.99;;
59284;Laerm;45056;47.602;9.886;2024-01-06T09:35:05;48.75;40.71;62.71;;
59284;Laerm;45056;47.602;9.886;2024-01-06T09:37:33;57.16;40.13;72.17;;
59284;Laerm;45056;47.602;9.886;2024-01-06T09:40:01;62.09;41.22;72.76;;
59284;Laerm;45056;47.602;9.886;2024-01-06T09:42:29;47.58;38.95;60.64;;
59284;Laerm;45056;47.602;9.886;2024-01-06T09:44:57;46.65;39.81;61.01;;
59284;Laerm;45056;47.602;9.886;2024-01-06T09:47:29;47.34;40.13;59.08;;
59284;Laerm;45056;47.602;9.886;2024-01-06T09:50:06;47.40;40.13;61.27;;
59284;Laerm;45056;47.602;9.886;2024-01-06T09:52:40;46.41;38.67;59.90;;
59284;Laerm;45056;47.602;9.886;2024-01-06T09:55:12;47.80;41.14;61.65;;
59284;Laerm;45056;47.602;9.886;2024-01-06T09:57:40;45.84;39.57;70.49;;
59284;Laerm;45056;47.602;9.886;2024-01-06T10:00:09;49.29;40.71;61.97;;
59284;Laerm;45056;47.602;9.886;2024-01-06T10:02:37;51.99;41.75;63.46;;
59284;Laerm;45056;47.602;9.886;2024-01-06T10:05:08;48.61;40.80;59.36;;
59284;Laerm;45056;47.602;9.886;2024-01-06T10:07:37;47.92;40.23;60.41;;
59284;Laerm;45056;47.602;9.886;2024-01-06T10:10:07;46.37;39.34;61.38;;
59284;Laerm;45056;47.602;9.886;2024-01-06T10:12:37;49.69;41.22;63.43;;
59284;Laerm;45056;47.602;9.886;2024-01-06T10:15:07;48.94;40.43;60.37;;
59284;Laerm;45056;47.602;9.886;2024-01-06T10:17:37;46.92;39.58;63.48;;
59284;Laerm;45056;47.602;9.886;2024-01-06T10:20:12;48.99;39.92;63.26;;
59284;Laerm;45056;47.602;9.886;2024-01-06T10:22:41;48.18;40.98;60.99;;
59284;Laerm;45056;47.602;9.886;2024-01-06T10:25:12;48.64;40.98;61.03;;
59284;Laerm;45056;47.602;9.886;2024-01-06T10:27:41;50.93;41.89;66.98;;
59284;Laerm;45056;47.602;9.886;2024-01-06T10:30:11;50.65;42.16;71.16;;
59284;Laerm;45056;47.602;9.886;2024-01-06T10:32:41;48.57;41.22;62.32;;
59284;Laerm;45056;47.602;9.886;2024-01-06T10:35:10;47.83;40.80;61.62;;
59284;Laerm;45056;47.602;9.886;2024-01-06T10:37:42;49.69;41.82;62.45;;
59284;Laerm;45056;47.602;9.886;2024-01-06T10:40:14;49.87;41.30;71.58;;
59284;Laerm;45056;47.602;9.886;2024-01-06T10:42:45;51.26;40.80;74.57;;
59284;Laerm;45056;47.602;9.886;2024-01-06T10:45:14;47.36;39.70;61.08;;
59284;Laerm;45056;47.602;9.886;2024-01-06T10:47:43;47.46;40.23;61.36;;
59284;Laerm;45056;47.602;9.886;2024-01-06T10:50:14;48.23;40.33;61.82;;
59284;Laerm;45056;47.602;9.886;2024-01-06T10:52:47;49.24;41.22;64.81;;
59284;Laerm;45056;47.602;9.886;2024-01-06T10:55:16;48.61;41.30;62.78;;
59284;Laerm;45056;47.602;9.886;2024-01-06T10:57:47;47.42;40.23;61.99;;
59284;Laerm;45056;47.602;9.886;2024-01-06T11:00:17;49.10;40.33;66.36;;
59284;Laerm;45056;47.602;9.886;2024-01-06T11:02:47;52.41;42.88;66.23;;
59284;Laerm;45056;47.602;9.886;2024-01-06T11:05:22;59.55;48.76;67.33;;
59284;Laerm;45056;47.602;9.886;2024-01-06T11:07:51;49.13;40.71;59.78;;
59284;Laerm;45056;47.602;9.886;2024-01-06T11:10:28;50.02;41.46;62.07;;
59284;Laerm;45056;47.602;9.886;2024-01-06T11:13:09;47.88;41.14;59.50;;
59284;Laerm;45056;47.602;9.886;2024-01-06T11:15:43;48.84;40.71;60.30;;
59284;Laerm;45056;47.602;9.886;2024-01-06T11:18:33;48.07;40.13;59.53;;
59284;Laerm;45056;47.602;9.886;2024-01-06T11:21:20;48.89;40.33;61.17;;
59284;Laerm;45056;47.602;9.886;2024-01-06T11:24:14;45.94;40.03;55.44;;
59284;Laerm;45056;47.602;9.886;2024-01-06T11:26:51;50.81;42.29;61.87;;
59284;Laerm;45056;47.602;9.886;2024-01-06T11:29:20;48.15;39.92;60.58;;
59284;Laerm;45056;47.602;9.886;2024-01-06T11:32:17;48.27;40.03;60.32;;
59284;Laerm;45056;47.602;9.886;2024-01-06T11:34:50;48.81;40.80;58.77;;
59284;Laerm;45056;47.602;9.886;2024-01-06T11:37:24;46.97;40.33;60.09;;
59284;Laerm;45056;47.602;9.886;2024-01-06T11:39:53;47.96;39.99;59.63;;
59284;Laerm;45056;47.602;9.886;2024-01-06T11:42:21;46.63;39.92;57.03;;
59284;Laerm;45056;47.602;9.886;2024-01-06T11:44:52;49.99;39.58;67.57;;
59284;Laerm;45056;47.602;9.886;2024-01-06T11:47:20;49.28;40.33;60.72;;
59284;Laerm;45056;47.602;9.886;2024-01-06T11:49:54;47.48;38.67;61.74;;
59284;Laerm;45056;47.602;9.886;2024-01-06T11:52:25;44.66;39.21;57.29;;
59284;Laerm;45056;47.602;9.886;2024-01-06T11:54:55;48.45;40.33;58.36;;
59284;Laerm;45056;47.602;9.886;2024-01-06T11:57:24;47.92;40.33;59.12;;
59284;Laerm;45056;47.602;9.886;2024-01-06T11:59:52;46.63;39.92;57.31;;
59284;Laerm;45056;47.602;9.886;2024-01-06T12:02:21;48.05;38.95;60.64;;
59284;Laerm;45056;47.602;9.886;2024-01-06T12:04:51;48.77;40.13;59.27;;
59284;Laerm;45056;47.602;9.886;2024-01-06T12:07:21;46.91;39.21;58.64;;
59284;Laerm;45056;47.602;9.886;2024-01-06T12:10:02;46.72;38.32;61.12;;
59284;Laerm;45056;47.602;9.886;2024-01-06T12:12:30;48.15;39.92;60.04;;
59284;Laerm;45056;47.602;9.886;2024-01-06T12:14:59;48.35;40.13;59.47;;
59284;Laerm;45056;47.602;9.886;2024-01-06T12:17:29;49.15;40.03;60.55;;
59284;Laerm;45056;47.602;9.886;2024-01-06T12:19:58;48.56;40.33;60.28;;
59284;Laerm;45056;47.602;9.886;2024-01-06T12:22:27;47.66;41.06;57.44;;
59284;Laerm;45056;47.602;9.886;2024-01-06T12:24:58;46.50;40.36;57.73;;
59284;Laerm;45056;47.602;9.886;2024-01-06T12:27:26;47.74;40.43;59.33;;
59284;Laerm;45056;47.602;9.886;2024-01-06T12:29:54;48.37;39.58;60.39;;
59284;Laerm;45056;47.602;9.886;2024-01-06T12:32:23;49.39;40.98;60.77;;
59284;Laerm;45056;47.602;9.886;2024-01-06T12:34:52;49.41;40.71;60.57;;
59284;Laerm;45056;47.602;9.886;2024-01-06T12:37:20;48.92;39.34;60.12;;
59284;Laerm;45056;47.602;9.886;2024-01-06T12:39:48;48.92;38.67;61.54;;
59284;Laerm;45056;47.602;9.886;2024-01-06T12:42:17;47.18;39.81;57.83;;
59284;Laerm;45056;47.602;9.886;2024-01-06T12:44:46;46.77;39.58;59.56;;
59284;Laerm;45056;47.602;9.886;2024-01-06T12:47:14;48.91;41.22;60.34;;
59284;Laerm;45056;47.602;9.886;2024-01-06T12:49:42;48.67;40.33;58.50;;
59284;Laerm;45056;47.602;9.886;2024-01-06T12:52:10;45.48;39.58;57.10;;
59284;Laerm;45056;47.602;9.886;2024-01-06T12:54:39;48.43;39.46;59.77;;
59284;Laerm;45056;47.602;9.886;2024-01-06T12:57:08;47.62;39.21;60.29;;
59284;Laerm;45056;47.602;9.886;2024-01-06T12:59:38;45.83;38.95;58.57;;
59284;Laerm;45056;47.602;9.886;2024-01-06T13:02:05;48.62;40.33;60.26;;
59284;Laerm;45056;47.602;9.886;2024-01-06T13:04:33;46.73;40.23;57.83;;
59284;Laerm;45056;47.602;9.886;2024-01-06T13:07:02;46.92;40.53;58.60;;
59284;Laerm;45056;47.602;9.886;2024-01-06T13:09:30;48.17;39.92;58.75;;
59284;Laerm;45056;47.602;9.886;2024-01-06T13:11:59;49.31;40.43;60.70;;
59284;Laerm;45056;47.602;9.886;2024-01-06T13:14:27;47.89;39.46;58.54;;
59284;Laerm;45056;47.602;9.886;2024-01-06T13:16:58;47.19;40.71;56.94;;
59284;Laerm;45056;47.602;9.886;2024-01-06T13:19:26;46.17;38.67;58.59;;
59284;Laerm;45056;47.602;9.886;2024-01-06T13:21:54;47.59;40.33;58.22;;
59284;Laerm;45056;47.602;9.886;2024-01-06T13:24:22;48.14;40.80;59.15;;
59284;Laerm;45056;47.602;9.886;2024-01-06T13:26:50;49.30;40.03;59.84;;
59284;Laerm;45056;47.602;9.886;2024-01-06T13:29:19;47.94;38.67;58.09;;
59284;Laerm;45056;47.602;9.886;2024-01-06T13:31:47;47.71;40.13;59.52;;
59284;Laerm;45056;47.602;9.886;2024-01-06T13:34:16;47.42;38.37;62.81;;
59284;Laerm;45056;47.602;9.886;2024-01-06T13:36:44;47.44;39.81;59.83;;
59284;Laerm;45056;47.602;9.886;2024-01-06T13:39:12;47.35;38.95;62.28;;
59284;Laerm;45056;47.602;9.886;2024-01-06T13:41:47;47.30;38.95;60.99;;
59284;Laerm;45056;47.602;9.886;2024-01-06T13:44:15;46.09;37.87;59.25;;
59284;Laerm;45056;47.602;9.886;2024-01-06T13:46:43;47.84;40.53;57.59;;
59284;Laerm;45056;47.602;9.886;2024-01-06T13:49:11;48.89;39.08;59.90;;
59284;Laerm;45056;47.602;9.886;2024-01-06T13:51:41;47.94;40.98;58.10;;
59284;Laerm;45056;47.602;9.886;2024-01-06T13:54:09;48.06;40.89;60.94;;
59284;Laerm;45056;47.602;9.886;2024-01-06T13:56:37;48.50;41.30;59.73;;